Time;durP1;ratioP1;P1;durP2;ratioP2;P2;SDS_P1;SDS_P2;PMS_P1;PMS_P2;Temp;Humidity;BMP_temperature;BMP_pressure;BME280_temperature;BME280_humidity;BME280_pressure;Samples;Min_cycle;Max_cycle;Signal;HPM_P1;HPM_P2
2021/11/05 00:00:59;;;;;;;4.15;3.30;;;;;;;2.20;100.00;92856.38;2050125;28;20023;-87
2021/11/05 00:02:00;;;;;;;3.67;3.17;;;;;;;2.26;100.00;92852.25;2065101;28;20042;-87
2021/11/05 00:03:01;;;;;;;4.18;3.78;;;;;;;2.23;100.00;92863.53;2050015;28;20067;-87
2021/11/05 00:04:02;;;;;;;4.50;3.33;;;;;;;2.26;100.00;92862.81;2058152;28;20022;-88
2021/11/05 00:05:03;;;;;;;4.20;3.20;;;;;;;2.27;100.00;92859.03;2074196;28;20026;-88
2021/11/05 00:06:04;;;;;;;4.10;3.80;;;;;;;2.43;100.00;92864.78;2066079;28;20906;-87
2021/11/05 00:07:05;;;;;;;4.03;3.53;;;;;;;2.21;100.00;92856.00;2065878;28;20125;-87
2021/11/05 00:08:10;;;;;;;3.70;3.40;;;;;;;2.38;100.00;92862.50;2064272;28;20523;-88
2021/11/05 00:09:11;;;;;;;4.00;3.60;;;;;;;2.29;100.00;92864.72;2066672;28;20034;-88
2021/11/05 00:10:12;;;;;;;5.30;3.50;;;;;;;2.26;100.00;92860.94;2065274;28;20121;-87
2021/11/05 00:11:12;;;;;;;4.15;3.75;;;;;;;2.13;100.00;92870.28;2074191;28;20037;-87
2021/11/05 00:12:13;;;;;;;3.50;3.20;;;;;;;2.18;100.00;92862.00;2065972;28;20117;-88
2021/11/05 00:13:15;;;;;;;4.93;3.88;;;;;;;2.20;100.00;92866.94;2061591;28;20034;-88
2021/11/05 00:14:15;;;;;;;5.47;3.90;;;;;;;2.27;100.00;92861.69;2050033;28;20092;-88
2021/11/05 00:15:17;;;;;;;4.00;3.70;;;;;;;2.29;100.00;92863.97;2058045;28;20062;-88
2021/11/05 00:16:18;;;;;;;4.20;3.80;;;;;;;2.17;100.00;92865.03;2051694;28;20499;-87
2021/11/05 00:17:19;;;;;;;4.03;3.72;;;;;;;2.20;100.00;92864.28;2057740;28;20031;-88
2021/11/05 00:18:20;;;;;;;5.43;4.10;;;;;;;2.12;100.00;92868.00;2050193;28;20074;-87
2021/11/05 00:19:21;;;;;;;3.92;3.63;;;;;;;2.04;100.00;92864.56;2066071;28;20418;-88
2021/11/05 00:20:23;;;;;;;3.65;3.35;;;;;;;1.99;100.00;92860.41;2073932;28;20052;-88
2021/11/05 00:21:24;;;;;;;4.72;3.55;;;;;;;1.98;100.00;92866.81;2057774;28;20031;-86
2021/11/05 00:22:25;;;;;;;4.00;3.70;;;;;;;2.03;100.00;92867.59;2057857;28;20159;-87
2021/11/05 00:23:26;;;;;;;4.78;3.63;;;;;;;2.08;100.00;92867.97;2050080;28;20101;-88
2021/11/05 00:24:27;;;;;;;4.93;3.58;;;;;;;2.11;100.00;92869.91;2049998;28;20066;-87
2021/11/05 00:25:28;;;;;;;4.50;3.92;;;;;;;2.05;100.00;92871.34;2066219;28;20034;-88
2021/11/05 00:26:29;;;;;;;5.22;3.90;;;;;;;2.03;100.00;92863.06;2065715;28;20105;-86
2021/11/05 00:27:30;;;;;;;5.13;4.35;;;;;;;1.99;100.00;92867.56;2049772;28;20034;-87
2021/11/05 00:28:31;;;;;;;4.13;3.72;;;;;;;2.01;100.00;92865.28;2049880;28;20066;-87
2021/11/05 00:29:32;;;;;;;5.68;3.53;;;;;;;1.95;100.00;92867.53;2057799;28;20025;-87
2021/11/05 00:30:33;;;;;;;5.90;3.72;;;;;;;2.01;100.00;92867.94;2065921;28;20137;-87
2021/11/05 00:31:34;;;;;;;3.95;3.65;;;;;;;1.97;100.00;92873.16;2057022;28;20023;-87
2021/11/05 00:32:36;;;;;;;3.72;3.42;;;;;;;1.96;100.00;92870.91;2057630;28;20027;-87
2021/11/05 00:33:37;;;;;;;5.13;3.97;;;;;;;1.92;100.00;92872.78;2058073;28;20554;-87
2021/11/05 00:34:38;;;;;;;4.25;3.80;;;;;;;1.96;100.00;92876.94;2057959;28;20046;-87
2021/11/05 00:35:39;;;;;;;4.10;3.70;;;;;;;2.00;100.00;92880.34;2057953;28;20027;-88
2021/11/05 00:36:40;;;;;;;3.97;3.67;;;;;;;1.97;100.00;92872.41;2057913;28;20050;-88
2021/11/05 00:37:41;;;;;;;4.07;3.78;;;;;;;2.04;100.00;92880.38;2057786;28;20026;-87
2021/11/05 00:38:44;;;;;;;4.40;4.00;;;;;;;2.01;100.00;92879.22;2065967;28;20176;-88
2021/11/05 00:39:45;;;;;;;4.45;4.05;;;;;;;2.10;100.00;92873.63;2065844;28;20105;-88
2021/11/05 00:40:46;;;;;;;4.43;4.03;;;;;;;2.05;100.00;92875.88;2049759;28;20075;-87
2021/11/05 00:41:47;;;;;;;5.28;3.85;;;;;;;2.07;100.00;92884.94;2049778;28;20599;-87
2021/11/05 00:42:48;;;;;;;4.93;3.90;;;;;;;2.00;100.00;92877.72;2050133;28;20063;-86
2021/11/05 00:43:49;;;;;;;3.97;3.60;;;;;;;1.97;100.00;92880.31;2057720;28;20645;-88
2021/11/05 00:44:50;;;;;;;3.33;2.95;;;;;;;1.99;100.00;92875.47;2049743;28;20023;-88
2021/11/05 00:45:50;;;;;;;3.50;3.20;;;;;;;1.97;100.00;92883.72;2057648;28;20078;-87
2021/11/05 00:46:51;;;;;;;3.38;3.08;;;;;;;2.08;100.00;92886.44;2049840;28;20027;-88
2021/11/05 00:47:52;;;;;;;4.25;3.45;;;;;;;2.06;100.00;92874.72;2057938;28;20022;-87
2021/11/05 00:48:53;;;;;;;3.70;3.17;;;;;;;2.06;100.00;92882.66;2049607;28;20027;-87
2021/11/05 00:49:54;;;;;;;4.15;3.35;;;;;;;2.01;100.00;92873.97;2049679;28;20051;-88
2021/11/05 00:50:55;;;;;;;7.85;3.28;;;;;;;2.02;100.00;92882.66;2056428;28;20034;-88
2021/11/05 00:51:56;;;;;;;3.97;3.00;;;;;;;2.10;100.00;92881.53;2065821;28;20446;-87
2021/11/05 00:52:58;;;;;;;3.70;3.30;;;;;;;2.07;100.00;92884.19;2073737;28;20109;-88
2021/11/05 00:53:59;;;;;;;3.38;3.08;;;;;;;2.07;100.00;92881.53;2065936;28;20022;-88
2021/11/05 00:55:00;;;;;;;3.40;3.10;;;;;;;2.11;100.00;92879.66;2057848;28;20022;-87
2021/11/05 00:56:04;;;;;;;3.40;3.10;;;;;;;2.03;100.00;92886.03;2057778;28;20131;-88
2021/11/05 00:57:05;;;;;;;3.30;3.00;;;;;;;2.01;100.00;92883.75;2058522;28;20027;-88
2021/11/05 00:58:07;;;;;;;3.25;2.92;;;;;;;2.06;100.00;92882.66;2057725;28;20034;-87
2021/11/05 00:59:08;;;;;;;3.05;2.75;;;;;;;2.09;100.00;92882.66;2057854;28;20023;-89
2021/11/05 01:00:14;;;;;;;2.80;2.60;;;;;;;2.07;100.00;92886.81;2065703;28;20029;-88
2021/11/05 01:01:15;;;;;;;2.78;2.58;;;;;;;2.04;100.00;92890.94;2059181;28;20026;-88
2021/11/05 01:02:16;;;;;;;4.30;2.58;;;;;;;2.07;100.00;92892.84;2065763;28;20467;-88
2021/11/05 01:03:17;;;;;;;2.92;2.72;;;;;;;2.08;100.00;92891.72;2073884;28;20506;-88
2021/11/05 01:04:18;;;;;;;2.80;2.60;;;;;;;2.07;100.00;92889.44;2081686;28;20030;-88
2021/11/05 01:05:19;;;;;;;2.80;2.60;;;;;;;2.10;100.00;92891.34;2064165;28;20088;-87
2021/11/05 01:06:20;;;;;;;2.50;2.30;;;;;;;2.11;100.00;92887.56;2057615;28;20030;-87
2021/11/05 01:07:21;;;;;;;2.42;1.92;;;;;;;2.11;100.00;92895.47;2049382;28;20019;-88
2021/11/05 01:08:22;;;;;;;2.20;2.10;;;;;;;2.08;100.00;92896.22;2065621;28;20027;-88
2021/11/05 01:09:23;;;;;;;2.58;2.38;;;;;;;2.11;100.00;92898.88;2057432;28;20065;-87
2021/11/05 01:10:24;;;;;;;2.03;1.80;;;;;;;2.11;100.00;92892.84;2057697;28;20025;-88
2021/11/05 01:11:25;;;;;;;2.10;2.00;;;;;;;2.23;100.00;92897.81;2065657;28;20049;-88
2021/11/05 01:12:26;;;;;;;2.13;1.92;;;;;;;2.16;100.00;92895.91;2065677;28;20057;-87
2021/11/05 01:13:27;;;;;;;2.15;1.95;;;;;;;2.08;100.00;92888.31;2065375;28;20022;-88
2021/11/05 01:14:28;;;;;;;2.30;2.10;;;;;;;2.08;100.00;92893.59;2065688;28;20422;-88
2021/11/05 01:15:29;;;;;;;1.80;1.70;;;;;;;2.03;100.00;92896.56;2065659;28;20104;-89
2021/11/05 01:16:30;;;;;;;2.80;2.30;;;;;;;1.93;100.00;92890.88;2057582;28;20073;-87
2021/11/05 01:17:31;;;;;;;2.17;2.08;;;;;;;2.01;100.00;92891.66;2057757;28;20030;-88
2021/11/05 01:18:32;;;;;;;3.45;3.15;;;;;;;2.07;100.00;92894.72;2057002;28;20186;-88
2021/11/05 01:19:33;;;;;;;3.22;2.92;;;;;;;2.09;100.00;92897.72;2049633;28;20027;-88
2021/11/05 01:20:34;;;;;;;2.83;2.63;;;;;;;2.12;100.00;92902.28;2049393;28;20027;-88
2021/11/05 01:21:36;;;;;;;3.33;2.88;;;;;;;2.16;100.00;92898.53;2057537;28;20031;-88
2021/11/05 01:22:37;;;;;;;3.67;3.38;;;;;;;2.07;100.00;92897.34;2057345;28;20018;-89
2021/11/05 01:23:38;;;;;;;5.28;3.03;;;;;;;2.16;100.00;92895.91;2057535;28;20019;-89
2021/11/05 01:24:39;;;;;;;3.58;3.28;;;;;;;2.08;100.00;92904.88;2049611;28;20127;-88
2021/11/05 01:25:40;;;;;;;3.50;3.05;;;;;;;2.14;100.00;92900.03;2057481;28;20094;-88
2021/11/05 01:26:41;;;;;;;3.33;3.03;;;;;;;2.12;100.00;92899.66;2065536;28;20499;-87
2021/11/05 01:27:45;;;;;;;3.92;3.10;;;;;;;2.04;100.00;92903.34;2057338;28;20415;-88
2021/11/05 01:28:46;;;;;;;3.22;2.88;;;;;;;2.09;100.00;92903.00;2049749;28;20027;-87
2021/11/05 01:29:47;;;;;;;3.15;2.85;;;;;;;2.09;100.00;92903.75;2041534;28;20031;-86
2021/11/05 01:30:48;;;;;;;3.28;2.97;;;;;;;2.11;100.00;92906.81;2041538;29;20082;-88
2021/11/05 01:31:52;;;;;;;3.47;2.75;;;;;;;2.05;100.00;92902.22;2041467;29;20429;-88
2021/11/05 01:32:53;;;;;;;4.28;2.88;;;;;;;1.99;100.00;92909.72;2049655;28;20030;-87
2021/11/05 01:33:54;;;;;;;2.63;2.42;;;;;;;2.00;100.00;92906.72;2043502;28;20062;-87
2021/11/05 01:34:56;;;;;;;3.03;2.70;;;;;;;2.05;100.00;92912.78;2049350;28;20123;-87
2021/11/05 01:35:57;;;;;;;2.72;2.53;;;;;;;2.09;100.00;92908.28;2057331;28;20419;-87
2021/11/05 01:36:58;;;;;;;2.65;2.45;;;;;;;2.06;100.00;92914.28;2057387;28;20415;-87
2021/11/05 01:38:01;;;;;;;2.50;2.30;;;;;;;2.06;100.00;92912.41;2057086;28;20027;-89
2021/11/05 01:39:02;;;;;;;4.78;2.60;;;;;;;2.00;100.00;92916.50;2057804;28;20460;-86
2021/11/05 01:40:05;;;;;;;2.67;2.47;;;;;;;2.09;100.00;92916.94;2065460;28;20093;-87
2021/11/05 01:41:06;;;;;;;2.63;2.42;;;;;;;2.03;100.00;92920.31;2050445;28;20753;-87
2021/11/05 01:42:08;;;;;;;3.47;2.60;;;;;;;2.04;100.00;92919.91;2057475;28;20114;-88
2021/11/05 01:43:11;;;;;;;2.80;2.60;;;;;;;2.00;100.00;92916.50;2053589;28;20019;-86
2021/11/05 01:44:12;;;;;;;3.00;2.70;;;;;;;1.95;100.00;92919.47;2057581;28;20018;-87
2021/11/05 01:45:13;;;;;;;2.35;2.15;;;;;;;1.90;100.00;92923.22;2049263;28;20110;-87
2021/11/05 01:46:18;;;;;;;2.97;2.78;;;;;;;1.93;100.00;92922.50;2049488;28;20023;-87
2021/11/05 01:47:19;;;;;;;2.55;2.35;;;;;;;1.97;100.00;92928.53;2050244;28;20024;-87
2021/11/05 01:48:20;;;;;;;2.95;2.75;;;;;;;1.95;100.00;92928.16;2049317;28;20526;-88
2021/11/05 01:49:21;;;;;;;2.50;2.30;;;;;;;1.96;100.00;92927.00;2057199;28;20117;-87
2021/11/05 01:50:23;;;;;;;2.60;2.40;;;;;;;2.07;100.00;92934.25;2057314;28;20542;-87
2021/11/05 01:51:24;;;;;;;2.50;2.30;;;;;;;1.98;100.00;92924.03;2065266;28;20057;-86
2021/11/05 01:52:25;;;;;;;3.35;2.50;;;;;;;1.89;100.00;92926.97;2057093;28;20019;-87
2021/11/05 01:53:26;;;;;;;2.92;2.50;;;;;;;1.90;100.00;92920.59;2057330;28;20022;-87
2021/11/05 01:54:27;;;;;;;2.90;2.60;;;;;;;2.05;100.00;92925.94;2057226;28;20036;-87
2021/11/05 01:55:28;;;;;;;2.72;2.53;;;;;;;1.93;100.00;92929.63;2049165;28;20027;-87
2021/11/05 01:56:30;;;;;;;4.85;2.58;;;;;;;2.03;100.00;92917.66;2057279;28;20562;-87
2021/11/05 01:57:30;;;;;;;3.38;2.78;;;;;;;2.07;100.00;92926.34;2065094;28;20471;-87
2021/11/05 01:58:32;;;;;;;2.47;2.30;;;;;;;2.05;100.00;92925.94;2065068;28;20032;-87
2021/11/05 01:59:35;;;;;;;2.50;2.30;;;;;;;2.10;100.00;92918.44;2057112;28;20033;-87
2021/11/05 02:00:37;;;;;;;2.40;2.20;;;;;;;1.98;100.00;92927.41;2057364;28;20031;-87
2021/11/05 02:01:38;;;;;;;2.75;2.55;;;;;;;1.92;100.00;92922.84;2049532;28;20030;-88
2021/11/05 02:02:40;;;;;;;2.30;2.15;;;;;;;2.01;100.00;92928.56;2049145;28;20031;-88
2021/11/05 02:03:41;;;;;;;3.85;2.47;;;;;;;1.96;100.00;92923.63;2049386;28;20070;-87
2021/11/05 02:04:42;;;;;;;2.53;2.33;;;;;;;2.01;100.00;92921.41;2049236;28;20110;-87
2021/11/05 02:05:45;;;;;;;3.28;2.20;;;;;;;1.91;100.00;92919.44;2049164;28;20365;-87
2021/11/05 02:08:24;;;;;;;;;;;;;;;1.88;100.00;92924.69;2149152;27;20108;-86
2021/11/05 02:09:27;;;;;;;2.25;2.05;;;;;;;1.82;100.00;92919.00;2130338;27;19911;-86
2021/11/05 02:10:28;;;;;;;2.90;2.20;;;;;;;1.89;100.00;92918.28;2113462;28;20032;-85
2021/11/05 02:11:29;;;;;;;3.65;2.33;;;;;;;1.90;100.00;92925.84;2120238;27;20076;-87
2021/11/05 02:12:30;;;;;;;2.65;2.45;;;;;;;1.88;100.00;92914.16;2121518;27;20024;-86
2021/11/05 02:13:33;;;;;;;5.53;2.55;;;;;;;1.86;100.00;92919.03;2113305;27;20028;-86
2021/11/05 02:14:34;;;;;;;2.58;2.38;;;;;;;1.87;100.00;92921.31;2130733;27;20026;-86
2021/11/05 02:15:35;;;;;;;2.60;2.40;;;;;;;1.89;100.00;92919.06;2130315;27;20018;-86
2021/11/05 02:16:37;;;;;;;3.05;2.17;;;;;;;1.84;100.00;92916.00;2130149;27;20098;-86
2021/11/05 02:17:38;;;;;;;2.58;2.38;;;;;;;1.84;100.00;92927.28;2121314;28;20532;-86
2021/11/05 02:18:41;;;;;;;2.85;2.60;;;;;;;1.85;100.00;92925.44;2113613;28;20065;-87
2021/11/05 02:19:42;;;;;;;3.13;2.80;;;;;;;1.95;100.00;92922.13;2113546;28;20032;-86
2021/11/05 02:20:44;;;;;;;2.55;2.35;;;;;;;1.94;100.00;92921.38;2105346;28;20039;-86
2021/11/05 02:21:48;;;;;;;2.83;2.63;;;;;;;1.85;100.00;92920.16;2113206;28;20020;-87
2021/11/05 02:22:52;;;;;;;3.65;2.72;;;;;;;1.83;100.00;92923.16;2113936;28;20027;-87
2021/11/05 02:23:53;;;;;;;2.58;2.30;;;;;;;1.93;100.00;92925.13;2113805;28;20024;-85
2021/11/05 02:24:54;;;;;;;3.00;2.63;;;;;;;1.92;100.00;92922.84;2113393;28;20026;-86
2021/11/05 02:25:55;;;;;;;3.13;2.40;;;;;;;1.86;100.00;92921.69;2113482;28;20027;-86
2021/11/05 02:26:58;;;;;;;2.60;2.17;;;;;;;1.83;100.00;92920.50;2105084;28;20562;-87
2021/11/05 02:27:59;;;;;;;2.67;2.47;;;;;;;1.86;100.00;92925.06;2118965;27;20103;-86
2021/11/05 02:29:00;;;;;;;6.75;2.33;;;;;;;1.92;100.00;92914.94;2104955;28;20035;-86
2021/11/05 02:30:07;;;;;;;3.00;2.65;;;;;;;1.88;100.00;92925.44;2105048;28;20470;-86
2021/11/05 02:31:08;;;;;;;4.03;2.35;;;;;;;1.96;100.00;92931.53;2121771;28;20062;-87
2021/11/05 02:32:09;;;;;;;4.32;2.47;;;;;;;1.87;100.00;92933.72;2113449;28;20066;-86
2021/11/05 02:33:10;;;;;;;2.72;2.53;;;;;;;1.94;100.00;92937.19;2109309;28;20024;-86
2021/11/05 02:34:12;;;;;;;2.47;2.28;;;;;;;1.94;100.00;92934.53;2104758;28;20101;-87
2021/11/05 02:35:15;;;;;;;3.47;2.55;;;;;;;1.97;100.00;92933.78;2104465;28;20028;-86
2021/11/05 02:36:15;;;;;;;2.60;2.40;;;;;;;1.94;100.00;92934.53;2097149;28;20031;-87
2021/11/05 02:37:24;;;;;;;2.45;2.25;;;;;;;2.04;100.00;92937.63;2105069;28;20115;-86
2021/11/05 02:38:25;;;;;;;3.22;2.58;;;;;;;2.01;100.00;92936.47;2119654;28;20061;-86
2021/11/05 02:39:26;;;;;;;2.58;2.38;;;;;;;1.93;100.00;92934.88;2113153;28;20104;-86
2021/11/05 02:40:27;;;;;;;2.70;2.50;;;;;;;1.93;100.00;92940.16;2104809;28;20427;-86
2021/11/05 02:41:28;;;;;;;2.40;2.20;;;;;;;2.00;100.00;92932.31;2121915;27;20027;-86
2021/11/05 02:42:29;;;;;;;2.15;2.05;;;;;;;2.09;100.00;92929.38;2130087;27;20018;-86
2021/11/05 02:43:30;;;;;;;2.50;2.30;;;;;;;2.01;100.00;92933.81;2112148;28;20016;-86
2021/11/05 02:44:31;;;;;;;2.75;2.55;;;;;;;1.95;100.00;92932.66;2104794;28;20016;-87
2021/11/05 02:45:32;;;;;;;2.28;2.17;;;;;;;1.87;100.00;92929.22;2104799;28;20571;-86
2021/11/05 02:46:33;;;;;;;2.58;2.33;;;;;;;1.77;100.00;92928.00;2113351;27;20028;-87
2021/11/05 02:47:34;;;;;;;3.60;2.22;;;;;;;1.75;100.00;92930.22;2113044;28;20469;-86
2021/11/05 02:48:35;;;;;;;2.70;2.50;;;;;;;1.86;100.00;92932.22;2104839;28;20050;-86
2021/11/05 02:49:36;;;;;;;2.65;2.45;;;;;;;1.82;100.00;92937.47;2113093;28;20158;-86
2021/11/05 02:50:37;;;;;;;4.18;2.45;;;;;;;1.86;100.00;92940.13;2104989;28;20028;-86
2021/11/05 02:51:38;;;;;;;2.42;2.22;;;;;;;1.85;100.00;92946.53;2113268;28;20023;-86
2021/11/05 02:52:40;;;;;;;2.58;2.38;;;;;;;1.92;100.00;92947.31;2113236;28;20032;-85
2021/11/05 02:53:41;;;;;;;2.97;2.35;;;;;;;1.87;100.00;92939.00;2121584;28;20019;-86
2021/11/05 02:54:42;;;;;;;6.55;2.17;;;;;;;1.80;100.00;92954.75;2104651;28;20177;-86
2021/11/05 02:55:43;;;;;;;3.42;2.10;;;;;;;1.91;100.00;92948.44;2113364;27;20081;-86
2021/11/05 02:56:44;;;;;;;2.45;2.25;;;;;;;1.91;100.00;92943.16;2113083;28;20016;-86
2021/11/05 02:57:45;;;;;;;2.42;2.22;;;;;;;1.69;100.00;92944.13;2096222;28;20100;-85
2021/11/05 02:58:46;;;;;;;2.85;2.50;;;;;;;1.71;100.00;92944.50;2096442;28;20097;-85
2021/11/05 02:59:47;;;;;;;6.15;2.30;;;;;;;1.81;100.00;92940.47;2104749;28;20070;-85
2021/11/05 03:00:49;;;;;;;2.35;2.15;;;;;;;1.80;100.00;92949.47;2104772;28;20082;-87
2021/11/05 03:01:50;;;;;;;2.80;2.60;;;;;;;1.66;100.00;92942.97;2113157;28;20020;-86
2021/11/05 03:02:52;;;;;;;2.80;2.20;;;;;;;1.56;100.00;92942.88;2121488;28;20019;-86
2021/11/05 03:03:59;;;;;;;3.58;2.05;;;;;;;1.55;100.00;92938.72;2104644;28;20137;-86
2021/11/05 03:05:00;;;;;;;2.10;1.98;;;;;;;1.54;100.00;92937.19;2115004;27;20043;-86
2021/11/05 03:06:02;;;;;;;5.80;2.50;;;;;;;1.59;100.00;92942.16;2113027;28;20028;-86
2021/11/05 03:07:06;;;;;;;2.05;1.90;;;;;;;1.64;100.00;92945.22;2104719;28;20024;-85
2021/11/05 03:08:07;;;;;;;2.10;2.00;;;;;;;1.66;100.00;92947.47;2116979;27;20058;-85
2021/11/05 03:09:10;;;;;;;2.10;2.00;;;;;;;1.61;100.00;92943.28;2121586;28;20022;-86
2021/11/05 03:10:15;;;;;;;2.15;1.90;;;;;;;1.63;100.00;92956.88;2113156;28;20020;-86
2021/11/05 03:11:16;;;;;;;2.05;1.95;;;;;;;1.46;100.00;92955.59;2113328;28;20024;-86
2021/11/05 03:12:16;;;;;;;2.00;1.80;;;;;;;1.50;100.00;92953.75;2112817;28;20404;-86
2021/11/05 03:13:18;;;;;;;2.20;2.00;;;;;;;1.50;100.00;92955.63;2110178;28;20020;-86
2021/11/05 03:14:19;;;;;;;2.53;2.33;;;;;;;1.43;100.00;92960.81;2113266;28;20121;-86
2021/11/05 03:15:20;;;;;;;2.10;2.00;;;;;;;1.28;100.00;92951.25;2104671;28;20021;-86
2021/11/05 03:16:21;;;;;;;2.53;1.92;;;;;;;1.25;100.00;92958.75;2096140;28;20072;-86
2021/11/05 03:17:24;;;;;;;1.75;1.65;;;;;;;1.32;100.00;92959.94;2104447;28;20024;-86
2021/11/05 03:18:30;;;;;;;1.90;1.73;;;;;;;1.26;100.00;92962.13;2104830;28;20024;-86
2021/11/05 03:19:32;;;;;;;2.35;2.15;;;;;;;1.20;100.00;92963.59;2107085;28;20154;-87
2021/11/05 03:20:33;;;;;;;1.98;1.88;;;;;;;1.20;100.00;92968.84;2115847;28;20065;-85
2021/11/05 03:21:34;;;;;;;2.65;1.60;;;;;;;1.14;100.00;92965.00;2115490;28;20108;-86
2021/11/05 03:22:35;;;;;;;3.33;1.60;;;;;;;1.10;100.00;92970.25;2107107;27;20065;-86
2021/11/05 03:23:37;;;;;;;1.83;1.73;;;;;;;1.10;100.00;92966.84;2115835;28;20031;-86
2021/11/05 03:24:38;;;;;;;3.15;1.45;;;;;;;1.14;100.00;92965.00;2107392;28;20486;-85
2021/11/05 03:25:39;;;;;;;1.73;1.63;;;;;;;1.14;100.00;92970.28;2115892;28;20035;-87
2021/11/05 03:26:40;;;;;;;1.70;1.60;;;;;;;1.12;100.00;92973.28;2124163;27;20915;-86
2021/11/05 03:27:41;;;;;;;1.83;1.70;;;;;;;1.05;100.00;92985.59;2115779;28;20394;-87
2021/11/05 03:28:42;;;;;;;1.65;1.55;;;;;;;1.06;100.00;92973.97;2120387;27;20502;-87
2021/11/05 03:29:43;;;;;;;3.92;2.03;;;;;;;1.06;100.00;92979.22;2115620;28;20028;-86
2021/11/05 03:30:44;;;;;;;2.28;1.35;;;;;;;1.17;100.00;92980.84;2107310;28;20052;-86
2021/11/05 03:31:45;;;;;;;2.28;1.80;;;;;;;1.27;100.00;92979.44;2090747;28;20025;-86
2021/11/05 03:32:47;;;;;;;3.63;1.55;;;;;;;1.20;100.00;92974.13;2090425;28;20029;-87
2021/11/05 03:33:48;;;;;;;2.20;1.77;;;;;;;1.08;100.00;92975.09;2099133;28;20509;-87
2021/11/05 03:34:49;;;;;;;1.73;1.63;;;;;;;1.14;100.00;92978.94;2107194;28;20083;-86
2021/11/05 03:35:50;;;;;;;1.90;1.80;;;;;;;1.06;100.00;92992.38;2098909;28;20358;-87
2021/11/05 03:36:51;;;;;;;1.83;1.73;;;;;;;1.04;100.00;92987.47;2090736;28;20136;-87
2021/11/05 03:37:52;;;;;;;2.30;2.10;;;;;;;1.04;100.00;92984.06;2098806;28;20020;-87
2021/11/05 03:38:54;;;;;;;1.98;1.88;;;;;;;1.14;100.00;92980.81;2107249;28;20559;-86
2021/11/05 03:39:55;;;;;;;7.55;1.85;;;;;;;1.10;100.00;92985.25;2121781;27;20035;-87
2021/11/05 03:40:56;;;;;;;4.85;1.67;;;;;;;1.15;100.00;92984.97;2115524;28;20076;-86
2021/11/05 03:41:58;;;;;;;4.45;1.70;;;;;;;1.19;100.00;92985.78;2115424;28;20028;-87
2021/11/05 03:43:00;;;;;;;1.70;1.60;;;;;;;1.28;100.00;92996.78;2098618;28;20028;-87
2021/11/05 03:44:01;;;;;;;2.45;1.63;;;;;;;1.21;100.00;92983.53;2098779;28;20021;-87
2021/11/05 03:45:04;;;;;;;2.92;1.70;;;;;;;1.11;100.00;92994.69;2099055;28;20115;-86
2021/11/05 03:46:06;;;;;;;2.00;1.50;;;;;;;1.13;100.00;92997.72;2106427;28;20039;-86
2021/11/05 03:47:07;;;;;;;1.70;1.60;;;;;;;1.09;100.00;93002.19;2107292;28;20028;-86
2021/11/05 03:48:08;;;;;;;1.60;1.50;;;;;;;1.07;100.00;92993.91;2098677;28;20487;-86
2021/11/05 03:49:09;;;;;;;2.55;1.58;;;;;;;1.20;100.00;93000.44;2107067;28;20024;-86
2021/11/05 03:50:10;;;;;;;2.42;1.63;;;;;;;1.18;100.00;93005.28;2106950;28;20016;-87
2021/11/05 03:51:11;;;;;;;1.50;1.40;;;;;;;1.07;100.00;93004.44;2098695;28;20425;-86
2021/11/05 03:52:13;;;;;;;1.52;1.42;;;;;;;1.02;100.00;93002.13;2090487;28;20063;-86
2021/11/05 03:53:14;;;;;;;2.25;1.80;;;;;;;1.15;100.00;93006.03;2098925;28;20109;-86
2021/11/05 03:54:15;;;;;;;3.13;1.58;;;;;;;1.04;100.00;93003.25;2107101;28;20409;-86
2021/11/05 03:55:16;;;;;;;1.70;1.60;;;;;;;0.96;100.00;93012.94;2098776;28;20111;-86
2021/11/05 03:56:17;;;;;;;1.80;1.70;;;;;;;0.89;100.00;93012.09;2103875;28;20027;-86
2021/11/05 03:57:18;;;;;;;1.70;1.60;;;;;;;0.88;100.00;93011.34;2107049;28;20377;-86
2021/11/05 03:58:19;;;;;;;1.90;1.80;;;;;;;0.97;100.00;93013.72;2106827;28;20040;-87
2021/11/05 03:59:20;;;;;;;2.35;1.60;;;;;;;0.92;100.00;93016.63;2098568;28;20107;-87
2021/11/05 04:00:21;;;;;;;1.88;1.77;;;;;;;0.88;100.00;93021.88;2107062;28;20031;-88
2021/11/05 04:01:22;;;;;;;2.25;1.75;;;;;;;0.84;100.00;93018.44;2098830;28;20032;-85
2021/11/05 04:02:23;;;;;;;2.67;1.90;;;;;;;0.77;100.00;93026.22;2090315;28;20025;-86
2021/11/05 04:03:24;;;;;;;1.52;1.42;;;;;;;0.75;100.00;93023.97;2098625;28;20155;-86
2021/11/05 04:04:25;;;;;;;1.80;1.70;;;;;;;0.90;100.00;93018.88;2098355;28;20029;-86
2021/11/05 04:05:26;;;;;;;1.52;1.42;;;;;;;0.77;100.00;93025.47;2090282;28;20555;-87
2021/11/05 04:06:27;;;;;;;1.73;1.63;;;;;;;0.88;100.00;93023.72;2107020;28;20020;-86
2021/11/05 04:07:28;;;;;;;1.42;1.33;;;;;;;0.78;100.00;93022.47;2123641;27;20080;-84
2021/11/05 04:08:29;;;;;;;1.73;1.63;;;;;;;0.83;100.00;93024.78;2106919;28;20442;-86
2021/11/05 04:09:30;;;;;;;1.80;1.70;;;;;;;0.97;100.00;93021.59;2101238;28;20032;-88
2021/11/05 04:10:31;;;;;;;1.52;1.42;;;;;;;0.98;100.00;93028.38;2106986;28;20057;-86
2021/11/05 04:11:32;;;;;;;1.80;1.40;;;;;;;0.93;100.00;93033.97;2109951;28;20035;-86
2021/11/05 04:12:33;;;;;;;3.63;1.70;;;;;;;0.91;100.00;93034.28;2106795;28;20023;-87
2021/11/05 04:13:34;;;;;;;2.55;1.60;;;;;;;0.91;100.00;93033.53;2107117;28;20069;-85
2021/11/05 04:14:35;;;;;;;1.20;1.20;;;;;;;0.85;100.00;93033.09;2115493;28;20031;-86
2021/11/05 04:15:36;;;;;;;2.72;1.38;;;;;;;0.90;100.00;93030.16;2115450;28;20419;-86
2021/11/05 04:16:37;;;;;;;1.38;1.27;;;;;;;0.79;100.00;93034.53;2115195;28;20028;-86
2021/11/05 04:17:39;;;;;;;1.35;1.25;;;;;;;0.78;100.00;93048.78;2115301;28;20075;-86
2021/11/05 04:18:40;;;;;;;1.38;1.27;;;;;;;0.88;100.00;93045.56;2107043;28;20412;-86
2021/11/05 04:19:41;;;;;;;1.15;1.10;;;;;;;0.83;100.00;93032.69;2098744;28;20032;-86
2021/11/05 04:20:42;;;;;;;1.33;1.23;;;;;;;0.89;100.00;93043.69;2106904;28;20468;-87
2021/11/05 04:21:44;;;;;;;1.30;1.20;;;;;;;0.81;100.00;93048.06;2098497;28;20021;-86
2021/11/05 04:22:45;;;;;;;1.40;1.30;;;;;;;0.85;100.00;93038.38;2106615;28;20016;-86
2021/11/05 04:23:47;;;;;;;1.58;1.48;;;;;;;0.99;100.00;93043.81;2106836;28;20024;-85
2021/11/05 04:24:48;;;;;;;3.10;1.92;;;;;;;0.98;100.00;93044.91;2107084;28;20069;-86
2021/11/05 04:25:49;;;;;;;2.40;2.30;;;;;;;0.88;100.00;93048.19;2106817;28;20055;-85
2021/11/05 04:26:50;;;;;;;2.60;2.40;;;;;;;0.92;100.00;93049.00;2106866;28;20031;-85
2021/11/05 04:27:51;;;;;;;2.53;2.33;;;;;;;1.02;100.00;93049.47;2098245;28;20058;-86
2021/11/05 04:28:52;;;;;;;2.90;2.70;;;;;;;1.05;100.00;93057.41;2096008;28;20449;-87
2021/11/05 04:29:53;;;;;;;2.50;2.30;;;;;;;1.07;100.00;93054.44;2106762;28;20445;-87
2021/11/05 04:30:54;;;;;;;2.20;2.10;;;;;;;0.98;100.00;93052.06;2106128;28;20042;-87
2021/11/05 04:31:56;;;;;;;2.90;2.70;;;;;;;0.94;100.00;93056.53;2106393;28;20024;-86
2021/11/05 04:32:57;;;;;;;2.78;2.22;;;;;;;0.92;100.00;93054.25;2115125;28;20028;-86
2021/11/05 04:33:58;;;;;;;2.25;2.05;;;;;;;1.01;100.00;93054.00;2098396;28;20488;-86
2021/11/05 04:34:59;;;;;;;2.78;1.80;;;;;;;1.03;100.00;93049.13;2090096;28;20029;-87
2021/11/05 04:36:01;;;;;;;2.03;1.92;;;;;;;1.13;100.00;93059.00;2090009;28;20032;-87
2021/11/05 04:37:02;;;;;;;1.77;1.67;;;;;;;1.30;100.00;93060.34;2090550;28;20476;-86
2021/11/05 04:38:03;;;;;;;2.20;2.00;;;;;;;1.15;100.00;93056.03;2098303;28;20530;-86
2021/11/05 04:39:04;;;;;;;2.35;1.70;;;;;;;1.13;100.00;93056.38;2098384;28;20029;-87
2021/11/05 04:40:05;;;;;;;1.83;1.58;;;;;;;1.24;100.00;93051.25;2098476;28;20576;-87
2021/11/05 04:41:06;;;;;;;2.97;1.42;;;;;;;1.19;100.00;93056.84;2098686;28;20032;-87
2021/11/05 04:42:07;;;;;;;1.90;1.80;;;;;;;1.30;100.00;93055.09;2098305;28;20032;-86
2021/11/05 04:43:08;;;;;;;1.63;1.52;;;;;;;1.43;100.00;93059.00;2098921;28;20627;-86
2021/11/05 04:44:09;;;;;;;3.13;1.60;;;;;;;1.38;100.00;93051.44;2106680;28;20055;-87
2021/11/05 04:45:10;;;;;;;1.95;1.70;;;;;;;1.21;100.00;93063.25;2115303;28;20028;-86
2021/11/05 04:46:11;;;;;;;1.35;1.25;;;;;;;1.31;100.00;93061.84;2106607;28;20046;-86
2021/11/05 04:47:12;;;;;;;1.85;1.75;;;;;;;1.22;100.00;93058.75;2089847;28;20509;-86
2021/11/05 04:48:13;;;;;;;1.50;1.40;;;;;;;1.20;100.00;93061.00;2106786;28;20437;-85
2021/11/05 04:49:14;;;;;;;3.13;1.90;;;;;;;1.05;100.00;93060.03;2098257;28;20075;-86
2021/11/05 04:50:16;;;;;;;1.50;1.40;;;;;;;1.09;100.00;93060.84;2104434;28;20049;-86
2021/11/05 04:51:17;;;;;;;2.42;1.77;;;;;;;1.14;100.00;93065.03;2115059;27;20098;-86